Austin, UT

1:12 PM MST on December 02, 2016 (GMT -0700)
Putter Butt Farms | | Change Station

Elev 5322 ft 38.65 °N, 112.14 °W | Updated 17 seconds ago

Light Snow
Light Snow
31.2 °F
Feels Like 24 °F
N
7.9
Wind Variable Wind from WNW
Gusts 10.0 mph

Today
High -- | Low -- °F
--% Chance of Precip.
Yesterday
High -- | Low -- °F
Precip. -- in
Pressure 30.16 in
Visibility 3.0 miles
Clouds Mostly Cloudy 2500 ft
Mostly Cloudy 3300 ft
Overcast 4600 ft
Windchill 24 °F
Dew Point 18 °F
Humidity 57%
Rainfall in
Snow Depth Not available.
7:28 AM 5:07 PM
Waxing Crescent, 10% visible
SPECI KMLF 021957Z AUTO 01016G23KT 3SM -SN BKN025 BKN033 OVC046 M01/M05 A3016 RMK AO2 P0000 T10061050
Pressure 30.16 in
Visibility 3.0 miles
Clouds Mostly Cloudy 2500 ft
Mostly Cloudy 3300 ft
Overcast 4600 ft
Windchill 24 °F
Dew Point 18 °F
Humidity 57%
Rainfall in
Snow Depth Not available.
7:28 AM 5:07 PM
Waxing Crescent, 10% visible
SPECI KMLF 021957Z AUTO 01016G23KT 3SM -SN BKN025 BKN033 OVC046 M01/M05 A3016 RMK AO2 P0000 T10061050

10-Day Weather Forecast

Almanac

Astronomy

Dec. 02, 2016 Rise Set
Actual Time
Civil Twilight
Nautical Twilight
Astronomical Twilight
Moon
Length of Visible Light
Length of Day
Tomorrow will be .
, % of the Moon is Illuminated

Today's Extremes

State Highs State Lows

Community

WunderPhotos

Upload Photos

1,955,348 photos uploaded!

WunderBlog® & News

Nearby

Air Quality

  Air Quality AQ Index Pollutant
Not available.

Snow Depth

Station Depth Elevation

Earthquake Activity

City Distance Mag. Time & Date
Minimum magnitude displayed is 2.5.

Coastal Water Temperatures

Place Temperature

Stations

Nearby Weather Stations

Station Location Temp. Windchill Dew Point Humidity Wind Precip. Elev Updated Type
                   

Watches & Warnings

There are currently no watches in effect.